Weather at Roxby Downs Station Airport

Public forecast

Using degrees Celsius for public forecast. Weather courtesy of forecast.io.

Closest aviation weather report (METAR) to Roxby Downs Station Airport

Closest report is Olympic Dam Airport, 15.7 nm (29.0 km) NNE. Retrieved 2021/06/15 16:00 UTC (36 minutes ago):

YOLD 151600Z AUTO 31003KT 9999 // NCD 05/01 Q1013

Closest aviation forecast (TAF) to Roxby Downs Station Airport

Closest forecast is Woomera Airfield, 26.0 nm (48.1 km) S. Retrieved 2021/06/15 12:00 UTC (5 hours ago):

TAF YPWR 151112Z 1512/1606 31012KT CAVOK FM160000 30018KT 9999 SCT030 FM160300 26016G29KT 9999 SCT030